sensor_id;sensor_type;location;lat;lon;timestamp;P1;durP1;ratioP1;P2;durP2;ratioP2
15297;SDS011;7750;48.796;9.026;2023-04-08T00:01:00;13.00;;;10.20;;
15297;SDS011;7750;48.796;9.026;2023-04-08T00:06:01;14.30;;;10.47;;
15297;SDS011;7750;48.796;9.026;2023-04-08T00:11:02;12.70;;;9.60;;
15297;SDS011;7750;48.796;9.026;2023-04-08T00:16:03;13.73;;;10.13;;
15297;SDS011;7750;48.796;9.026;2023-04-08T00:21:04;13.70;;;9.63;;
15297;SDS011;7750;48.796;9.026;2023-04-08T00:26:05;11.20;;;8.60;;
15297;SDS011;7750;48.796;9.026;2023-04-08T00:31:05;12.23;;;10.10;;
15297;SDS011;7750;48.796;9.026;2023-04-08T00:36:06;12.03;;;9.80;;
15297;SDS011;7750;48.796;9.026;2023-04-08T00:41:06;12.03;;;9.33;;
15297;SDS011;7750;48.796;9.026;2023-04-08T00:46:07;13.90;;;10.70;;
15297;SDS011;7750;48.796;9.026;2023-04-08T00:51:08;14.70;;;11.37;;
15297;SDS011;7750;48.796;9.026;2023-04-08T00:56:16;9.83;;;8.20;;
15297;SDS011;7750;48.796;9.026;2023-04-08T01:01:21;15.20;;;8.40;;
15297;SDS011;7750;48.796;9.026;2023-04-08T01:11:53;13.17;;;10.57;;
15297;SDS011;7750;48.796;9.026;2023-04-08T01:16:57;17.73;;;10.67;;
15297;SDS011;7750;48.796;9.026;2023-04-08T01:22:01;12.83;;;9.80;;
15297;SDS011;7750;48.796;9.026;2023-04-08T01:27:09;11.57;;;8.77;;
15297;SDS011;7750;48.796;9.026;2023-04-08T01:32:10;13.10;;;9.70;;
15297;SDS011;7750;48.796;9.026;2023-04-08T01:37:12;11.90;;;9.90;;
15297;SDS011;7750;48.796;9.026;2023-04-08T01:42:14;9.60;;;7.90;;
15297;SDS011;7750;48.796;9.026;2023-04-08T01:47:15;10.47;;;8.90;;
15297;SDS011;7750;48.796;9.026;2023-04-08T01:52:17;12.50;;;9.30;;
15297;SDS011;7750;48.796;9.026;2023-04-08T01:57:22;13.77;;;10.83;;
15297;SDS011;7750;48.796;9.026;2023-04-08T02:02:26;12.57;;;9.60;;
15297;SDS011;7750;48.796;9.026;2023-04-08T02:07:27;12.17;;;10.07;;
15297;SDS011;7750;48.796;9.026;2023-04-08T02:12:28;16.70;;;10.93;;
15297;SDS011;7750;48.796;9.026;2023-04-08T02:27:56;15.70;;;10.43;;
15297;SDS011;7750;48.796;9.026;2023-04-08T02:33:00;14.97;;;10.03;;
15297;SDS011;7750;48.796;9.026;2023-04-08T02:38:03;11.00;;;8.57;;
15297;SDS011;7750;48.796;9.026;2023-04-08T02:43:04;15.70;;;9.50;;
15297;SDS011;7750;48.796;9.026;2023-04-08T02:48:05;16.03;;;10.70;;
15297;SDS011;7750;48.796;9.026;2023-04-08T02:53:06;13.90;;;10.07;;
15297;SDS011;7750;48.796;9.026;2023-04-08T02:58:08;14.30;;;10.40;;
15297;SDS011;7750;48.796;9.026;2023-04-08T03:03:08;15.27;;;10.73;;
15297;SDS011;7750;48.796;9.026;2023-04-08T03:08:09;16.00;;;10.20;;
15297;SDS011;7750;48.796;9.026;2023-04-08T03:13:10;14.30;;;10.40;;
15297;SDS011;7750;48.796;9.026;2023-04-08T03:18:10;16.30;;;10.93;;
15297;SDS011;7750;48.796;9.026;2023-04-08T03:23:11;14.40;;;9.57;;
15297;SDS011;7750;48.796;9.026;2023-04-08T03:28:12;14.07;;;9.13;;
15297;SDS011;7750;48.796;9.026;2023-04-08T03:33:12;13.10;;;8.73;;
15297;SDS011;7750;48.796;9.026;2023-04-08T03:38:13;15.47;;;9.00;;
15297;SDS011;7750;48.796;9.026;2023-04-08T03:43:14;15.17;;;10.60;;
15297;SDS011;7750;48.796;9.026;2023-04-08T03:48:15;15.07;;;10.03;;
15297;SDS011;7750;48.796;9.026;2023-04-08T03:53:16;14.60;;;10.07;;
15297;SDS011;7750;48.796;9.026;2023-04-08T03:58:16;13.90;;;9.90;;
15297;SDS011;7750;48.796;9.026;2023-04-08T04:03:17;14.70;;;10.23;;
15297;SDS011;7750;48.796;9.026;2023-04-08T04:08:18;14.20;;;10.10;;
15297;SDS011;7750;48.796;9.026;2023-04-08T04:13:19;12.70;;;9.83;;
15297;SDS011;7750;48.796;9.026;2023-04-08T04:18:21;12.57;;;8.80;;
15297;SDS011;7750;48.796;9.026;2023-04-08T04:23:21;14.30;;;9.87;;
15297;SDS011;7750;48.796;9.026;2023-04-08T04:28:23;13.57;;;10.17;;
15297;SDS011;7750;48.796;9.026;2023-04-08T04:33:24;16.00;;;11.37;;
15297;SDS011;7750;48.796;9.026;2023-04-08T04:38:24;15.97;;;12.27;;
15297;SDS011;7750;48.796;9.026;2023-04-08T04:43:26;17.27;;;12.43;;
15297;SDS011;7750;48.796;9.026;2023-04-08T04:48:26;17.07;;;13.07;;
15297;SDS011;7750;48.796;9.026;2023-04-08T04:53:27;18.10;;;13.10;;
15297;SDS011;7750;48.796;9.026;2023-04-08T04:58:29;19.13;;;14.07;;
15297;SDS011;7750;48.796;9.026;2023-04-08T05:03:30;18.23;;;13.60;;
15297;SDS011;7750;48.796;9.026;2023-04-08T05:08:31;18.80;;;14.50;;
15297;SDS011;7750;48.796;9.026;2023-04-08T05:13:31;16.87;;;12.47;;
15297;SDS011;7750;48.796;9.026;2023-04-08T05:18:32;16.37;;;12.30;;
15297;SDS011;7750;48.796;9.026;2023-04-08T05:23:36;15.80;;;12.07;;
15297;SDS011;7750;48.796;9.026;2023-04-08T05:28:36;15.20;;;12.50;;
15297;SDS011;7750;48.796;9.026;2023-04-08T05:33:37;18.70;;;13.67;;
15297;SDS011;7750;48.796;9.026;2023-04-08T05:38:40;17.47;;;13.17;;
15297;SDS011;7750;48.796;9.026;2023-04-08T05:43:43;16.83;;;12.93;;
15297;SDS011;7750;48.796;9.026;2023-04-08T05:48:43;16.20;;;12.50;;
15297;SDS011;7750;48.796;9.026;2023-04-08T05:53:44;16.07;;;11.87;;
15297;SDS011;7750;48.796;9.026;2023-04-08T05:58:46;15.77;;;11.57;;
15297;SDS011;7750;48.796;9.026;2023-04-08T06:03:46;13.97;;;10.70;;
15297;SDS011;7750;48.796;9.026;2023-04-08T06:08:47;13.73;;;10.47;;
15297;SDS011;7750;48.796;9.026;2023-04-08T06:13:48;13.30;;;10.60;;
15297;SDS011;7750;48.796;9.026;2023-04-08T06:18:49;14.17;;;10.83;;
15297;SDS011;7750;48.796;9.026;2023-04-08T06:23:49;11.90;;;9.77;;
15297;SDS011;7750;48.796;9.026;2023-04-08T06:28:50;14.50;;;11.53;;
15297;SDS011;7750;48.796;9.026;2023-04-08T06:33:52;13.50;;;9.97;;
15297;SDS011;7750;48.796;9.026;2023-04-08T06:38:54;14.67;;;11.27;;
15297;SDS011;7750;48.796;9.026;2023-04-08T06:43:55;14.10;;;9.87;;
15297;SDS011;7750;48.796;9.026;2023-04-08T06:49:01;11.80;;;9.63;;
15297;SDS011;7750;48.796;9.026;2023-04-08T06:54:03;12.10;;;8.67;;
15297;SDS011;7750;48.796;9.026;2023-04-08T06:59:04;15.70;;;9.17;;
15297;SDS011;7750;48.796;9.026;2023-04-08T07:04:04;11.03;;;8.93;;
15297;SDS011;7750;48.796;9.026;2023-04-08T07:09:05;15.10;;;10.23;;
15297;SDS011;7750;48.796;9.026;2023-04-08T07:14:06;11.27;;;9.13;;
15297;SDS011;7750;48.796;9.026;2023-04-08T07:19:07;12.10;;;9.40;;
15297;SDS011;7750;48.796;9.026;2023-04-08T07:24:08;11.80;;;9.50;;
15297;SDS011;7750;48.796;9.026;2023-04-08T07:29:09;14.10;;;9.67;;
15297;SDS011;7750;48.796;9.026;2023-04-08T07:34:09;18.17;;;11.80;;
15297;SDS011;7750;48.796;9.026;2023-04-08T07:39:10;13.30;;;10.63;;
15297;SDS011;7750;48.796;9.026;2023-04-08T07:44:11;15.70;;;12.10;;
15297;SDS011;7750;48.796;9.026;2023-04-08T07:49:16;19.57;;;13.00;;
15297;SDS011;7750;48.796;9.026;2023-04-08T07:54:16;16.93;;;11.87;;
15297;SDS011;7750;48.796;9.026;2023-04-08T07:59:17;20.40;;;14.90;;
15297;SDS011;7750;48.796;9.026;2023-04-08T08:04:18;17.50;;;13.50;;
15297;SDS011;7750;48.796;9.026;2023-04-08T08:09:19;15.40;;;11.17;;
15297;SDS011;7750;48.796;9.026;2023-04-08T08:14:20;15.97;;;12.13;;
15297;SDS011;7750;48.796;9.026;2023-04-08T08:19:25;13.73;;;11.47;;
15297;SDS011;7750;48.796;9.026;2023-04-08T08:24:28;17.37;;;12.67;;
15297;SDS011;7750;48.796;9.026;2023-04-08T08:29:29;16.30;;;13.33;;
15297;SDS011;7750;48.796;9.026;2023-04-08T08:34:32;16.10;;;12.40;;
15297;SDS011;7750;48.796;9.026;2023-04-08T08:44:43;13.93;;;10.60;;
15297;SDS011;7750;48.796;9.026;2023-04-08T08:49:54;16.97;;;12.77;;
15297;SDS011;7750;48.796;9.026;2023-04-08T08:54:58;16.80;;;12.67;;
15297;SDS011;7750;48.796;9.026;2023-04-08T09:00:00;15.50;;;12.07;;
15297;SDS011;7750;48.796;9.026;2023-04-08T09:05:01;17.50;;;12.03;;
15297;SDS011;7750;48.796;9.026;2023-04-08T09:10:07;16.03;;;11.83;;
15297;SDS011;7750;48.796;9.026;2023-04-08T09:15:17;16.30;;;13.30;;
15297;SDS011;7750;48.796;9.026;2023-04-08T09:20:20;19.03;;;12.87;;
15297;SDS011;7750;48.796;9.026;2023-04-08T09:25:31;22.40;;;13.90;;
15297;SDS011;7750;48.796;9.026;2023-04-08T09:48:09;15.43;;;11.87;;
15297;SDS011;7750;48.796;9.026;2023-04-08T09:53:18;16.27;;;11.90;;
15297;SDS011;7750;48.796;9.026;2023-04-08T09:58:28;14.27;;;11.33;;
15297;SDS011;7750;48.796;9.026;2023-04-08T10:03:47;14.60;;;11.90;;
15297;SDS011;7750;48.796;9.026;2023-04-08T10:08:51;15.87;;;12.20;;
15297;SDS011;7750;48.796;9.026;2023-04-08T10:13:52;13.50;;;11.60;;
15297;SDS011;7750;48.796;9.026;2023-04-08T10:18:53;19.73;;;13.40;;
15297;SDS011;7750;48.796;9.026;2023-04-08T10:23:57;15.67;;;12.73;;
15297;SDS011;7750;48.796;9.026;2023-04-08T10:29:23;19.47;;;14.33;;
15297;SDS011;7750;48.796;9.026;2023-04-08T10:34:26;14.00;;;11.63;;
15297;SDS011;7750;48.796;9.026;2023-04-08T10:39:27;13.87;;;11.60;;
15297;SDS011;7750;48.796;9.026;2023-04-08T10:44:30;13.17;;;11.40;;
15297;SDS011;7750;48.796;9.026;2023-04-08T10:49:31;15.40;;;12.77;;
15297;SDS011;7750;48.796;9.026;2023-04-08T10:54:33;13.03;;;11.47;;
15297;SDS011;7750;48.796;9.026;2023-04-08T10:59:35;14.20;;;11.87;;
15297;SDS011;7750;48.796;9.026;2023-04-08T11:04:40;19.77;;;13.43;;
15297;SDS011;7750;48.796;9.026;2023-04-08T11:09:42;13.80;;;11.40;;
15297;SDS011;7750;48.796;9.026;2023-04-08T11:14:42;13.80;;;11.50;;
15297;SDS011;7750;48.796;9.026;2023-04-08T11:19:43;14.77;;;11.37;;
15297;SDS011;7750;48.796;9.026;2023-04-08T11:24:45;12.90;;;11.10;;
15297;SDS011;7750;48.796;9.026;2023-04-08T11:29:46;13.63;;;10.67;;
15297;SDS011;7750;48.796;9.026;2023-04-08T11:34:48;14.17;;;11.13;;
15297;SDS011;7750;48.796;9.026;2023-04-08T11:39:49;15.47;;;12.13;;
15297;SDS011;7750;48.796;9.026;2023-04-08T11:44:49;16.10;;;12.27;;
15297;SDS011;7750;48.796;9.026;2023-04-08T11:49:50;13.27;;;10.43;;
15297;SDS011;7750;48.796;9.026;2023-04-08T11:54:51;12.80;;;10.90;;
15297;SDS011;7750;48.796;9.026;2023-04-08T11:59:54;12.57;;;10.20;;
15297;SDS011;7750;48.796;9.026;2023-04-08T12:04:55;12.90;;;10.87;;
15297;SDS011;7750;48.796;9.026;2023-04-08T12:09:55;15.87;;;12.13;;
15297;SDS011;7750;48.796;9.026;2023-04-08T12:14:56;14.40;;;11.13;;
15297;SDS011;7750;48.796;9.026;2023-04-08T12:19:57;13.87;;;11.67;;
15297;SDS011;7750;48.796;9.026;2023-04-08T12:24:57;11.57;;;9.90;;
15297;SDS011;7750;48.796;9.026;2023-04-08T12:29:58;15.40;;;12.00;;
15297;SDS011;7750;48.796;9.026;2023-04-08T12:34:59;18.60;;;13.10;;
15297;SDS011;7750;48.796;9.026;2023-04-08T12:40:00;13.43;;;11.40;;
15297;SDS011;7750;48.796;9.026;2023-04-08T12:45:01;14.33;;;11.73;;
15297;SDS011;7750;48.796;9.026;2023-04-08T12:50:01;16.23;;;12.80;;
15297;SDS011;7750;48.796;9.026;2023-04-08T12:55:05;17.63;;;13.30;;
15297;SDS011;7750;48.796;9.026;2023-04-08T13:00:07;13.97;;;11.77;;
15297;SDS011;7750;48.796;9.026;2023-04-08T13:05:08;13.60;;;11.57;;
15297;SDS011;7750;48.796;9.026;2023-04-08T13:10:10;10.50;;;8.63;;
15297;SDS011;7750;48.796;9.026;2023-04-08T13:15:10;13.20;;;10.30;;
15297;SDS011;7750;48.796;9.026;2023-04-08T13:20:11;12.60;;;10.20;;
15297;SDS011;7750;48.796;9.026;2023-04-08T13:25:12;13.10;;;10.40;;
15297;SDS011;7750;48.796;9.026;2023-04-08T13:30:15;14.37;;;11.33;;
15297;SDS011;7750;48.796;9.026;2023-04-08T13:35:15;13.03;;;10.67;;
15297;SDS011;7750;48.796;9.026;2023-04-08T13:40:16;16.00;;;10.70;;
15297;SDS011;7750;48.796;9.026;2023-04-08T13:45:17;13.00;;;10.70;;
15297;SDS011;7750;48.796;9.026;2023-04-08T13:50:18;17.60;;;12.20;;
15297;SDS011;7750;48.796;9.026;2023-04-08T13:55:18;19.43;;;10.20;;
15297;SDS011;7750;48.796;9.026;2023-04-08T14:00:20;11.73;;;9.87;;
15297;SDS011;7750;48.796;9.026;2023-04-08T14:05:21;14.13;;;9.90;;
15297;SDS011;7750;48.796;9.026;2023-04-08T14:10:22;12.30;;;10.53;;
15297;SDS011;7750;48.796;9.026;2023-04-08T14:15:22;13.97;;;10.77;;
15297;SDS011;7750;48.796;9.026;2023-04-08T14:20:23;18.53;;;11.40;;
15297;SDS011;7750;48.796;9.026;2023-04-08T14:25:24;13.93;;;10.40;;
15297;SDS011;7750;48.796;9.026;2023-04-08T14:30:25;15.43;;;10.67;;
15297;SDS011;7750;48.796;9.026;2023-04-08T14:35:26;14.90;;;12.00;;
15297;SDS011;7750;48.796;9.026;2023-04-08T14:40:26;14.90;;;11.27;;
15297;SDS011;7750;48.796;9.026;2023-04-08T14:45:27;12.50;;;11.00;;
15297;SDS011;7750;48.796;9.026;2023-04-08T14:50:28;11.67;;;9.83;;
15297;SDS011;7750;48.796;9.026;2023-04-08T14:55:29;12.77;;;9.90;;
15297;SDS011;7750;48.796;9.026;2023-04-08T15:00:31;14.43;;;10.10;;
15297;SDS011;7750;48.796;9.026;2023-04-08T15:05:31;14.00;;;11.00;;
15297;SDS011;7750;48.796;9.026;2023-04-08T15:10:32;12.60;;;10.17;;
15297;SDS011;7750;48.796;9.026;2023-04-08T15:15:33;11.03;;;8.70;;
15297;SDS011;7750;48.796;9.026;2023-04-08T15:20:33;12.87;;;9.50;;
15297;SDS011;7750;48.796;9.026;2023-04-08T15:25:34;10.40;;;9.07;;
15297;SDS011;7750;48.796;9.026;2023-04-08T15:30:35;12.37;;;9.57;;
15297;SDS011;7750;48.796;9.026;2023-04-08T15:35:36;9.90;;;8.80;;
15297;SDS011;7750;48.796;9.026;2023-04-08T15:40:37;10.07;;;8.00;;
15297;SDS011;7750;48.796;9.026;2023-04-08T15:45:44;13.83;;;9.13;;
15297;SDS011;7750;48.796;9.026;2023-04-08T15:50:47;15.90;;;11.30;;
15297;SDS011;7750;48.796;9.026;2023-04-08T15:55:47;29.10;;;16.93;;
15297;SDS011;7750;48.796;9.026;2023-04-08T16:00:49;35.47;;;22.60;;
15297;SDS011;7750;48.796;9.026;2023-04-08T16:05:51;14.27;;;10.17;;
15297;SDS011;7750;48.796;9.026;2023-04-08T16:10:51;7.03;;;5.67;;
15297;SDS011;7750;48.796;9.026;2023-04-08T16:15:57;6.60;;;5.13;;
15297;SDS011;7750;48.796;9.026;2023-04-08T16:21:02;6.47;;;5.10;;
15297;SDS011;7750;48.796;9.026;2023-04-08T16:26:04;6.80;;;5.00;;
15297;SDS011;7750;48.796;9.026;2023-04-08T16:31:07;5.67;;;4.93;;
15297;SDS011;7750;48.796;9.026;2023-04-08T16:36:08;9.43;;;7.10;;
15297;SDS011;7750;48.796;9.026;2023-04-08T16:41:09;9.70;;;7.40;;
15297;SDS011;7750;48.796;9.026;2023-04-08T16:46:10;8.40;;;7.40;;
15297;SDS011;7750;48.796;9.026;2023-04-08T16:51:11;10.10;;;7.97;;
15297;SDS011;7750;48.796;9.026;2023-04-08T16:56:13;37.47;;;24.17;;
15297;SDS011;7750;48.796;9.026;2023-04-08T17:01:14;14.27;;;9.40;;
15297;SDS011;7750;48.796;9.026;2023-04-08T17:06:15;28.60;;;14.83;;
15297;SDS011;7750;48.796;9.026;2023-04-08T17:11:16;14.83;;;7.93;;
15297;SDS011;7750;48.796;9.026;2023-04-08T17:16:17;7.13;;;6.13;;
15297;SDS011;7750;48.796;9.026;2023-04-08T17:21:18;7.30;;;5.13;;
15297;SDS011;7750;48.796;9.026;2023-04-08T17:26:20;9.37;;;6.93;;
15297;SDS011;7750;48.796;9.026;2023-04-08T17:31:22;8.23;;;7.27;;
15297;SDS011;7750;48.796;9.026;2023-04-08T17:36:23;7.80;;;6.43;;
15297;SDS011;7750;48.796;9.026;2023-04-08T17:41:23;7.33;;;5.90;;
15297;SDS011;7750;48.796;9.026;2023-04-08T17:46:24;7.13;;;6.30;;
15297;SDS011;7750;48.796;9.026;2023-04-08T17:51:24;6.10;;;5.50;;
15297;SDS011;7750;48.796;9.026;2023-04-08T17:56:25;7.80;;;5.77;;
15297;SDS011;7750;48.796;9.026;2023-04-08T18:01:27;7.50;;;6.03;;
15297;SDS011;7750;48.796;9.026;2023-04-08T18:06:28;7.90;;;6.23;;
15297;SDS011;7750;48.796;9.026;2023-04-08T18:11:29;6.40;;;5.43;;
15297;SDS011;7750;48.796;9.026;2023-04-08T18:16:30;5.77;;;5.17;;
15297;SDS011;7750;48.796;9.026;2023-04-08T18:21:30;8.57;;;6.60;;
15297;SDS011;7750;48.796;9.026;2023-04-08T18:26:31;7.57;;;5.90;;
15297;SDS011;7750;48.796;9.026;2023-04-08T18:31:32;7.13;;;6.00;;
15297;SDS011;7750;48.796;9.026;2023-04-08T18:36:33;6.30;;;5.47;;
15297;SDS011;7750;48.796;9.026;2023-04-08T18:41:33;8.70;;;7.00;;
15297;SDS011;7750;48.796;9.026;2023-04-08T18:46:34;7.27;;;5.23;;
15297;SDS011;7750;48.796;9.026;2023-04-08T18:51:35;6.53;;;5.90;;
15297;SDS011;7750;48.796;9.026;2023-04-08T18:56:36;6.33;;;5.00;;
15297;SDS011;7750;48.796;9.026;2023-04-08T19:01:37;6.67;;;5.67;;
15297;SDS011;7750;48.796;9.026;2023-04-08T19:06:38;9.10;;;5.40;;
15297;SDS011;7750;48.796;9.026;2023-04-08T19:11:39;6.43;;;5.83;;
15297;SDS011;7750;48.796;9.026;2023-04-08T19:16:40;7.20;;;6.50;;
15297;SDS011;7750;48.796;9.026;2023-04-08T19:21:40;9.07;;;6.90;;
15297;SDS011;7750;48.796;9.026;2023-04-08T19:26:41;7.50;;;6.80;;
15297;SDS011;7750;48.796;9.026;2023-04-08T19:31:42;7.67;;;6.70;;
15297;SDS011;7750;48.796;9.026;2023-04-08T19:36:42;8.60;;;6.80;;
15297;SDS011;7750;48.796;9.026;2023-04-08T19:41:43;8.17;;;6.97;;
15297;SDS011;7750;48.796;9.026;2023-04-08T19:46:44;7.67;;;6.80;;
15297;SDS011;7750;48.796;9.026;2023-04-08T19:51:45;7.67;;;6.80;;
15297;SDS011;7750;48.796;9.026;2023-04-08T19:56:45;7.00;;;6.30;;
15297;SDS011;7750;48.796;9.026;2023-04-08T20:01:46;7.47;;;6.77;;
15297;SDS011;7750;48.796;9.026;2023-04-08T20:06:47;9.03;;;6.40;;
15297;SDS011;7750;48.796;9.026;2023-04-08T20:11:47;9.07;;;6.90;;
15297;SDS011;7750;48.796;9.026;2023-04-08T20:16:51;8.43;;;7.53;;
15297;SDS011;7750;48.796;9.026;2023-04-08T20:21:52;8.50;;;7.23;;
15297;SDS011;7750;48.796;9.026;2023-04-08T20:26:53;8.00;;;6.90;;
15297;SDS011;7750;48.796;9.026;2023-04-08T20:31:54;16.80;;;7.27;;
15297;SDS011;7750;48.796;9.026;2023-04-08T20:36:54;6.97;;;6.27;;
15297;SDS011;7750;48.796;9.026;2023-04-08T20:41:55;7.37;;;6.60;;
15297;SDS011;7750;48.796;9.026;2023-04-08T20:46:57;7.70;;;6.53;;
15297;SDS011;7750;48.796;9.026;2023-04-08T20:51:58;7.87;;;6.67;;
15297;SDS011;7750;48.796;9.026;2023-04-08T20:56:59;7.73;;;6.93;;
15297;SDS011;7750;48.796;9.026;2023-04-08T21:01:59;8.20;;;7.40;;
15297;SDS011;7750;48.796;9.026;2023-04-08T21:07:00;9.17;;;7.53;;
15297;SDS011;7750;48.796;9.026;2023-04-08T21:12:01;9.50;;;7.07;;
15297;SDS011;7750;48.796;9.026;2023-04-08T21:17:01;9.90;;;7.77;;
15297;SDS011;7750;48.796;9.026;2023-04-08T21:22:02;9.17;;;8.20;;
15297;SDS011;7750;48.796;9.026;2023-04-08T21:27:03;8.07;;;7.27;;
15297;SDS011;7750;48.796;9.026;2023-04-08T21:32:04;8.30;;;7.30;;
15297;SDS011;7750;48.796;9.026;2023-04-08T21:37:05;9.10;;;7.97;;
15297;SDS011;7750;48.796;9.026;2023-04-08T21:42:06;7.77;;;6.97;;
15297;SDS011;7750;48.796;9.026;2023-04-08T21:47:06;10.17;;;7.63;;
15297;SDS011;7750;48.796;9.026;2023-04-08T21:52:07;8.53;;;7.60;;
